Time;durP1;ratioP1;P1;durP2;ratioP2;P2;SDS_P1;SDS_P2;PMS_P1;PMS_P2;Temp;Humidity;BMP_temperature;BMP_pressure;BME280_temperature;BME280_humidity;BME280_pressure;Samples;Min_cycle;Max_cycle;Signal;HPM_P1;HPM_P2
2022/06/08 00:02:30;;;;;;;44.20;8.77;;;;;;;31.48;45.75;97157.19;4923665;29;20066;-67
2022/06/08 00:05:18;;;;;;;45.30;10.48;;;;;;;31.42;49.18;97177.50;4928913;29;20496;-66
2022/06/08 00:08:00;;;;;;;40.35;10.25;;;;;;;31.38;49.65;97181.63;4937798;29;20058;-66
2022/06/08 00:10:49;;;;;;;38.80;9.32;;;;;;;31.31;48.56;97186.16;4930668;29;20427;-66
2022/06/08 00:13:32;;;;;;;31.25;9.23;;;;;;;31.26;49.99;97182.53;4929550;28;20059;-66
2022/06/08 00:16:20;;;;;;;36.88;10.23;;;;;;;31.17;52.10;97190.75;4927526;29;20055;-67
2022/06/08 00:19:09;;;;;;;39.53;10.77;;;;;;;31.10;48.94;97199.81;4929389;29;20490;-68
2022/06/08 00:21:51;;;;;;;38.97;10.00;;;;;;;31.04;49.10;97200.63;4929153;29;20090;-68
2022/06/08 00:24:41;;;;;;;37.42;9.07;;;;;;;30.98;49.87;97212.91;4928236;29;20055;-68
2022/06/08 00:27:22;;;;;;;39.83;9.57;;;;;;;30.96;50.21;97214.16;4921650;29;20060;-67
2022/06/08 00:30:12;;;;;;;48.72;11.00;;;;;;;30.91;50.38;97216.63;4909306;29;20048;-66
2022/06/08 00:33:02;;;;;;;34.17;10.10;;;;;;;30.88;53.18;97201.09;4920754;29;20055;-68
2022/06/08 00:35:58;;;;;;;35.42;10.57;;;;;;;30.84;52.12;97205.19;4911223;29;20061;-66
2022/06/08 00:38:35;;;;;;;36.78;10.75;;;;;;;30.81;53.95;97198.44;4923839;29;20432;-67
2022/06/08 00:41:52;;;;;;;43.95;10.85;;;;;;;30.79;53.95;97201.34;4928244;29;20455;-68
2022/06/08 00:44:46;;;;;;;45.72;11.95;;;;;;;30.74;54.12;97206.44;4911083;29;20083;-67
2022/06/08 00:47:38;;;;;;;40.78;10.20;;;;;;;30.74;54.44;97209.09;4927755;29;20055;-67
2022/06/08 00:50:48;;;;;;;50.50;11.02;;;;;;;30.73;53.51;97226.09;4910986;28;20170;-68
2022/06/08 00:53:53;;;;;;;33.28;10.73;;;;;;;30.74;55.93;97226.91;4908080;29;20450;-67
2022/06/08 00:56:44;;;;;;;49.50;11.63;;;;;;;30.73;55.94;97225.31;4909022;29;20048;-67
2022/06/08 00:59:36;;;;;;;50.67;11.20;;;;;;;30.71;55.63;97222.84;4909273;29;20056;-68
2022/06/08 01:02:18;;;;;;;48.08;10.90;;;;;;;30.71;54.92;97222.03;4921516;29;20051;-67
2022/06/08 01:05:16;;;;;;;33.67;10.65;;;;;;;30.77;57.59;97226.50;4926930;29;20139;-68
2022/06/08 01:08:08;;;;;;;38.35;10.15;;;;;;;30.78;58.48;97228.97;4925754;29;20056;-68
2022/06/08 01:11:13;;;;;;;36.58;10.77;;;;;;;30.80;59.29;97237.56;4926132;29;20083;-68
2022/06/08 01:13:51;;;;;;;39.00;10.40;;;;;;;30.82;60.85;97237.31;4920398;28;20581;-67
2022/06/08 01:17:08;;;;;;;42.65;10.95;;;;;;;30.85;60.70;97244.06;4907896;29;20408;-67
2022/06/08 01:20:03;;;;;;;35.35;9.25;;;;;;;30.86;59.43;97246.53;4923465;29;20052;-67
2022/06/08 01:22:45;;;;;;;44.00;10.48;;;;;;;30.93;61.24;97251.81;4922775;29;20048;-68
2022/06/08 01:25:44;;;;;;;46.63;11.73;;;;;;;30.95;60.21;97260.41;4923386;29;20442;-67
2022/06/08 01:28:42;;;;;;;40.08;10.10;;;;;;;31.00;60.98;97272.06;4907418;29;20067;-67
2022/06/08 01:32:18;;;;;;;42.83;10.98;;;;;;;31.06;62.89;97273.06;4915581;29;20055;-66
2022/06/08 01:35:06;;;;;;;52.30;12.32;;;;;;;31.11;61.68;97278.63;4834730;29;20080;-67
2022/06/08 01:38:25;;;;;;;41.75;11.43;;;;;;;31.19;62.95;97283.69;4909023;29;20706;-67
2022/06/08 01:41:42;;;;;;;41.30;11.98;;;;;;;31.25;64.32;97288.19;4906817;29;20051;-66
2022/06/08 01:48:54;;;;;;;46.83;11.68;;;;;;;31.28;66.90;97302.91;4907301;29;20052;-66
2022/06/08 01:52:06;;;;;;;40.67;11.10;;;;;;;30.99;62.33;97298.88;4918077;29;20056;-66
2022/06/08 01:55:08;;;;;;;43.47;11.82;;;;;;;31.05;65.54;97298.06;4909122;29;20059;-67
2022/06/08 01:58:51;;;;;;;39.15;11.40;;;;;;;31.09;69.63;97308.09;4917615;29;20103;-68
2022/06/08 02:01:33;;;;;;;54.50;11.65;;;;;;;30.97;65.10;97299.06;4902607;29;20058;-67
2022/06/08 02:04:28;;;;;;;47.58;13.13;;;;;;;31.07;72.68;97317.31;4924784;29;20189;-66
2022/06/08 02:07:34;;;;;;;51.97;13.02;;;;;;;31.29;74.63;97316.00;4918936;29;20052;-67
2022/06/08 02:11:15;;;;;;;66.45;15.23;;;;;;;31.45;73.23;97315.53;4906488;29;20083;-67
2022/06/08 02:14:26;;;;;;;49.45;12.77;;;;;;;31.86;82.18;97322.31;4900614;29;20051;-67
2022/06/08 02:18:00;;;;;;;57.78;13.25;;;;;;;32.32;85.60;97339.91;4903799;29;20059;-67
2022/06/08 02:20:55;;;;;;;49.85;12.95;;;;;;;32.73;82.98;97355.41;4909899;29;20052;-67
2022/06/08 02:23:56;;;;;;;67.30;13.93;;;;;;;32.85;78.66;97349.09;4906072;29;20397;-66
2022/06/08 02:26:47;;;;;;;68.07;13.57;;;;;;;32.95;78.74;97344.09;4926234;29;20475;-68
2022/06/08 02:29:59;;;;;;;50.17;13.25;;;;;;;32.96;81.57;97344.91;4925499;29;20124;-67
2022/06/08 02:36:18;;;;;;;65.38;14.60;;;;;;;33.28;68.97;97364.31;4940518;29;20056;-68
2022/06/08 02:39:09;;;;;;;56.28;16.10;;;;;;;33.27;63.18;97363.50;4929012;29;20052;-67
2022/06/08 02:42:10;;;;;;;61.17;15.75;;;;;;;32.95;69.31;97361.97;4913012;29;20467;-67
2022/06/08 02:45:07;;;;;;;60.13;15.20;;;;;;;32.82;66.51;97362.88;4949170;29;20047;-66
2022/06/08 02:48:00;;;;;;;66.13;16.58;;;;;;;32.65;75.62;97351.09;4918977;29;20062;-67
2022/06/08 02:50:56;;;;;;;49.05;14.00;;;;;;;32.41;72.09;97352.72;4932713;29;20142;-67
2022/06/08 02:54:14;;;;;;;44.65;13.82;;;;;;;32.26;68.78;97350.38;4944247;29;20137;-67
2022/06/08 02:57:35;;;;;;;45.58;14.45;;;;;;;32.17;76.31;97341.00;4945115;29;20135;-66
2022/06/08 03:00:36;;;;;;;44.38;13.75;;;;;;;32.15;77.33;97337.75;4931092;29;20145;-67
2022/06/08 03:03:33;;;;;;;54.10;13.82;;;;;;;32.13;80.44;97325.63;4909784;29;20051;-67
2022/06/08 03:06:28;;;;;;;49.55;13.95;;;;;;;32.10;74.70;97316.22;4908394;29;20044;-68
2022/06/08 03:09:13;;;;;;;65.35;14.02;;;;;;;32.37;53.30;97316.06;4938935;28;20051;-68
2022/06/08 03:12:12;;;;;;;57.00;11.55;;;;;;;32.66;48.17;97310.03;4933640;28;20361;-68
2022/06/08 03:15:02;;;;;;;46.22;10.55;;;;;;;32.90;45.79;97306.56;4893261;28;20053;-67
2022/06/08 03:17:58;;;;;;;50.78;10.55;;;;;;;33.06;46.93;97305.16;4876126;29;20072;-67
2022/06/08 03:20:35;;;;;;;47.38;12.48;;;;;;;33.26;43.28;97307.66;4903622;29;20063;-65
2022/06/08 03:23:35;;;;;;;50.45;11.02;;;;;;;33.49;44.47;97289.06;4889708;29;20109;-66
2022/06/08 03:26:11;;;;;;;54.17;9.98;;;;;;;33.74;42.57;97292.47;4886803;29;20055;-68
2022/06/08 03:29:07;;;;;;;52.65;9.77;;;;;;;34.11;41.10;97290.47;4910761;29;20060;-66
2022/06/08 03:31:44;;;;;;;45.85;8.68;;;;;;;34.42;39.57;97289.38;4904340;29;20066;-65
2022/06/08 03:34:32;;;;;;;41.90;8.63;;;;;;;34.76;37.79;97286.97;4891906;29;20044;-66
2022/06/08 03:37:23;;;;;;;49.10;7.90;;;;;;;35.09;36.69;97292.50;4908339;29;20051;-68
2022/06/08 03:40:09;;;;;;;55.13;8.77;;;;;;;35.39;37.10;97283.50;4881745;29;20403;-66
2022/06/08 03:42:58;;;;;;;64.03;11.52;;;;;;;35.69;34.73;97292.91;4891894;29;20147;-67
2022/06/08 03:45:44;;;;;;;44.05;8.65;;;;;;;35.88;35.88;97296.25;4874455;29;20373;-67
2022/06/08 03:48:33;;;;;;;36.63;7.85;;;;;;;36.46;36.05;97291.63;4890518;29;20052;-67
2022/06/08 03:51:18;;;;;;;42.15;8.68;;;;;;;36.89;35.88;97293.59;4891760;29;20079;-67
2022/06/08 03:54:13;;;;;;;52.45;8.32;;;;;;;36.88;35.16;97283.94;4889002;29;20740;-64
2022/06/08 03:56:59;;;;;;;42.80;8.77;;;;;;;37.28;32.77;97294.44;4889699;29;20063;-66
2022/06/08 03:59:52;;;;;;;54.83;10.20;;;;;;;37.22;33.69;97301.59;4870612;29;20060;-65
2022/06/08 04:02:38;;;;;;;53.50;8.77;;;;;;;37.57;32.32;97301.22;4897369;29;20059;-67
2022/06/08 04:05:33;;;;;;;56.90;9.60;;;;;;;37.77;34.71;97297.94;4898842;29;20137;-65
2022/06/08 04:08:27;;;;;;;51.33;8.40;;;;;;;37.93;33.13;97297.84;4889386;29;20401;-67
2022/06/08 04:11:16;;;;;;;44.00;8.93;;;;;;;38.04;35.16;97296.06;4873532;29;20076;-66
2022/06/08 04:14:12;;;;;;;56.03;8.82;;;;;;;37.96;30.64;97296.53;4890956;29;21906;-65
2022/06/08 04:17:09;;;;;;;55.42;9.73;;;;;;;38.20;33.20;97299.75;4908295;29;20079;-66
2022/06/08 04:20:01;;;;;;;61.83;8.48;;;;;;;38.48;31.85;97309.38;4907425;29;20047;-65
2022/06/08 04:22:43;;;;;;;50.92;9.48;;;;;;;38.26;30.87;97304.91;4907058;29;20084;-67
2022/06/08 04:25:34;;;;;;;50.03;8.95;;;;;;;38.74;30.33;97303.13;4889443;29;20499;-67
2022/06/08 04:28:20;;;;;;;58.10;8.35;;;;;;;39.03;32.38;97304.41;4903004;29;20048;-66
2022/06/08 04:31:15;;;;;;;49.17;8.50;;;;;;;38.72;30.94;97309.84;4907761;29;20052;-66
2022/06/08 04:34:05;;;;;;;62.03;8.45;;;;;;;38.77;32.79;97310.69;4908400;29;20150;-65
2022/06/08 04:36:54;;;;;;;42.33;7.28;;;;;;;38.81;30.89;97309.09;4915852;29;20053;-63
2022/06/08 04:39:48;;;;;;;53.05;9.02;;;;;;;39.19;30.32;97309.88;4928164;29;20048;-63
2022/06/08 04:42:36;;;;;;;62.75;9.95;;;;;;;38.75;31.13;97301.25;4911527;29;20062;-63
2022/06/08 04:45:26;;;;;;;61.15;7.63;;;;;;;38.90;31.71;97312.94;4926832;29;20132;-65
2022/06/08 04:48:13;;;;;;;44.58;8.15;;;;;;;39.04;31.47;97314.09;4912226;29;20051;-64
2022/06/08 04:51:03;;;;;;;77.93;11.48;;;;;;;39.19;32.36;97308.00;4911924;29;20067;-63
2022/06/08 04:53:47;;;;;;;50.38;9.02;;;;;;;38.91;34.44;97303.78;4920649;29;20507;-63
2022/06/08 04:56:38;;;;;;;66.82;8.30;;;;;;;39.13;32.34;97306.34;4907017;29;20051;-64
2022/06/08 04:59:22;;;;;;;65.22;9.48;;;;;;;39.10;31.79;97308.75;4922425;29;20079;-64
2022/06/08 05:05:36;;;;;;;46.72;7.38;;;;;;;39.12;29.85;97314.69;4907962;29;20044;-65
2022/06/08 05:08:36;;;;;;;52.05;7.03;;;;;;;39.30;34.28;97312.34;4892316;29;20373;-65
2022/06/08 05:11:19;;;;;;;40.38;8.00;;;;;;;39.34;33.32;97309.94;4931881;28;20059;-64
2022/06/08 05:14:08;;;;;;;38.60;8.07;;;;;;;39.29;31.41;97304.53;4928664;29;20062;-64
2022/06/08 05:17:07;;;;;;;52.47;7.53;;;;;;;39.63;33.23;97308.44;4950283;28;20124;-64
2022/06/08 05:20:02;;;;;;;42.38;7.53;;;;;;;39.65;31.54;97308.19;4942981;28;20062;-65
2022/06/08 05:23:00;;;;;;;45.40;7.13;;;;;;;39.80;30.88;97302.81;4891251;29;20052;-63
2022/06/08 05:25:38;;;;;;;46.28;7.18;;;;;;;39.99;34.71;97303.94;4902691;29;20044;-63
2022/06/08 05:28:29;;;;;;;42.10;7.30;;;;;;;40.09;32.87;97303.97;4906781;29;20052;-64
2022/06/08 05:31:19;;;;;;;43.40;7.15;;;;;;;40.04;30.07;97303.16;4903393;29;20785;-64
2022/06/08 05:34:03;;;;;;;37.55;6.43;;;;;;;39.75;28.72;97298.22;4884100;29;20115;-64
2022/06/08 05:36:54;;;;;;;41.03;7.22;;;;;;;39.95;32.13;97294.78;4887036;29;20052;-64
2022/06/08 05:39:50;;;;;;;49.75;7.05;;;;;;;39.98;30.61;97298.84;4874312;29;20052;-64
2022/06/08 05:42:27;;;;;;;47.05;7.10;;;;;;;40.03;30.38;97290.75;4887743;29;20068;-64
2022/06/08 05:45:26;;;;;;;39.85;7.13;;;;;;;40.43;33.93;97292.66;4887818;29;20191;-64
2022/06/08 05:48:04;;;;;;;;;;;;;;;40.41;32.20;97284.84;4888179;29;20060;-65
2022/06/08 05:51:02;;;;;;;41.38;6.47;;;;;;;40.41;32.75;97275.91;4872973;29;19931;-64
2022/06/08 05:53:40;;;;;;;60.70;7.43;;;;;;;40.50;32.61;97282.41;4872618;29;20061;-64
2022/06/08 05:56:39;;;;;;;54.03;9.43;;;;;;;40.21;31.56;97282.13;4854439;29;20064;-65
2022/06/08 05:59:17;;;;;;;38.67;7.57;;;;;;;40.00;29.26;97278.59;4890726;29;20057;-65
2022/06/08 06:02:10;;;;;;;44.80;6.05;;;;;;;40.25;30.48;97279.72;4897011;29;20059;-65
2022/06/08 06:04:59;;;;;;;40.92;6.72;;;;;;;40.44;34.15;97276.19;4902241;29;20048;-64
2022/06/08 06:07:49;;;;;;;38.88;7.75;;;;;;;40.41;29.76;97275.91;4892934;29;20150;-64
2022/06/08 06:10:43;;;;;;;37.78;8.07;;;;;;;40.49;30.69;97275.38;4901243;29;20059;-64
2022/06/08 06:13:52;;;;;;;38.15;6.07;;;;;;;40.50;28.33;97272.41;4915811;29;20715;-65
2022/06/08 06:16:45;;;;;;;40.08;7.28;;;;;;;40.45;31.86;97266.22;4904124;29;20052;-64
2022/06/08 06:19:27;;;;;;;45.85;6.88;;;;;;;40.53;30.24;97266.47;4906254;29;20052;-65
2022/06/08 06:22:42;;;;;;;46.47;8.27;;;;;;;40.58;29.36;97270.22;4939174;28;20126;-64
2022/06/08 06:25:58;;;;;;;28.73;5.07;;;;;;;40.44;28.31;97260.00;4937965;28;20138;-65
2022/06/08 06:29:10;;;;;;;40.85;6.68;;;;;;;40.59;27.92;97251.06;4926176;29;20142;-66
2022/06/08 06:32:32;;;;;;;39.63;6.40;;;;;;;40.76;30.56;97248.88;4939747;28;20070;-64
2022/06/08 06:35:23;;;;;;;34.20;5.50;;;;;;;40.82;32.83;97252.38;4927943;29;20055;-64
2022/06/08 06:38:16;;;;;;;;;;;;;;;40.66;28.41;97248.06;4912287;29;20138;-64
2022/06/08 06:41:06;;;;;;;32.28;4.88;;;;;;;40.74;32.42;97234.84;4912597;29;19927;-64
2022/06/08 06:43:52;;;;;;;37.00;5.45;;;;;;;40.78;30.43;97238.63;4928552;29;20379;-64
2022/06/08 06:46:59;;;;;;;44.75;6.07;;;;;;;40.90;29.50;97231.00;4931663;29;20551;-64
2022/06/08 06:49:50;;;;;;;36.83;6.53;;;;;;;41.04;28.90;97230.41;4938455;28;20050;-64
2022/06/08 06:52:47;;;;;;;20.15;5.35;;;;;;;41.07;28.97;97230.66;4913923;29;20681;-64
2022/06/08 06:55:28;;;;;;;36.65;5.28;;;;;;;40.99;31.15;97225.03;4929363;29;20099;-64
2022/06/08 06:58:25;;;;;;;46.08;7.15;;;;;;;40.99;29.30;97225.03;4929574;29;20069;-64
2022/06/08 07:01:14;;;;;;;35.70;5.88;;;;;;;41.03;32.95;97221.47;4914906;29;20150;-63
2022/06/08 07:04:10;;;;;;;38.20;5.90;;;;;;;41.00;28.62;97211.22;4927825;29;20044;-64
2022/06/08 07:06:48;;;;;;;36.33;5.78;;;;;;;41.01;26.79;97209.34;4930435;29;20127;-64
2022/06/08 07:09:37;;;;;;;;;;;;;;;41.10;29.76;97207.72;4915720;29;20052;-65
2022/06/08 07:12:20;;;;;;;46.97;6.40;;;;;;;41.15;30.24;97203.06;4916751;29;20377;-64
2022/06/08 07:15:13;;;;;;;27.98;5.70;;;;;;;41.15;30.60;97197.66;4928992;29;20071;-64
2022/06/08 07:17:57;;;;;;;43.22;7.28;;;;;;;41.02;28.84;97192.84;4943433;28;21233;-64
2022/06/08 07:20:46;;;;;;;47.13;7.15;;;;;;;41.06;27.65;97196.59;4907680;29;20052;-64
2022/06/08 07:23:28;;;;;;;34.72;5.35;;;;;;;41.15;30.20;97192.25;4928314;28;20075;-64
2022/06/08 07:26:28;;;;;;;40.08;5.55;;;;;;;41.15;26.94;97194.16;4910346;29;20135;-64
2022/06/08 07:29:05;;;;;;;32.95;5.90;;;;;;;41.08;27.66;97190.91;4914364;29;20067;-64
2022/06/08 07:31:54;;;;;;;36.20;6.20;;;;;;;41.16;29.31;97188.47;4919026;29;20048;-63
2022/06/08 07:34:43;;;;;;;36.15;5.88;;;;;;;41.14;26.69;97196.06;4916651;29;20511;-64
2022/06/08 07:37:27;;;;;;;50.72;7.10;;;;;;;41.11;28.52;97174.97;4912843;29;20047;-65
2022/06/08 07:40:16;;;;;;;42.42;5.50;;;;;;;41.15;28.19;97181.44;4907490;29;20055;-65
2022/06/08 07:43:00;;;;;;;35.78;6.63;;;;;;;41.08;27.50;97175.50;4913937;29;20130;-66
2022/06/08 07:45:49;;;;;;;30.20;5.90;;;;;;;41.11;29.04;97172.25;4904304;29;20048;-64
2022/06/08 07:51:41;;;;;;;46.13;6.78;;;;;;;41.07;28.77;97167.69;4913454;29;20147;-65
2022/06/08 07:54:25;;;;;;;43.70;5.85;;;;;;;41.20;28.63;97164.38;4912892;29;20165;-64
2022/06/08 07:57:18;;;;;;;38.85;5.70;;;;;;;41.25;26.91;97156.25;4916915;29;20127;-65
2022/06/08 08:00:05;;;;;;;37.40;7.60;;;;;;;41.15;28.08;97151.72;4891193;29;20040;-64
2022/06/08 08:02:53;;;;;;;46.00;6.43;;;;;;;41.14;26.35;97143.88;4914633;29;20052;-64
2022/06/08 08:05:47;;;;;;;34.33;6.72;;;;;;;41.24;27.20;97144.63;4924720;29;20051;-64
2022/06/08 08:08:36;;;;;;;26.17;5.18;;;;;;;41.19;29.00;97122.19;4892235;29;20115;-65
2022/06/08 08:11:19;;;;;;;22.48;4.63;;;;;;;41.18;29.52;97121.44;4891007;29;20144;-65
2022/06/08 08:14:08;;;;;;;31.58;5.75;;;;;;;41.15;29.54;97126.56;4891645;29;20048;-63
2022/06/08 08:16:51;;;;;;;42.38;6.20;;;;;;;41.12;27.28;97113.59;4905218;29;20090;-64
2022/06/08 08:19:42;;;;;;;31.92;5.57;;;;;;;41.13;28.96;97113.31;4895400;29;20112;-65
2022/06/08 08:22:24;;;;;;;32.17;5.20;;;;;;;41.11;26.49;97104.69;4889205;29;20692;-65
2022/06/08 08:25:22;;;;;;;24.45;5.15;;;;;;;41.19;28.32;97100.56;4896033;29;20100;-65
2022/06/08 08:27:59;;;;;;;32.95;4.82;;;;;;;41.20;27.22;97099.50;4921860;29;20062;-64
2022/06/08 08:30:48;;;;;;;35.22;4.82;;;;;;;41.14;26.17;97101.44;4906811;29;20159;-63
2022/06/08 08:33:36;;;;;;;28.27;5.70;;;;;;;41.19;27.58;97095.97;4905132;29;20048;-65
2022/06/08 08:36:30;;;;;;;30.83;4.97;;;;;;;41.11;27.14;97084.97;4931549;28;20056;-64
2022/06/08 08:39:06;;;;;;;25.45;5.18;;;;;;;40.91;25.37;97077.75;4923737;29;20044;-64
2022/06/08 08:45:11;;;;;;;33.83;7.38;;;;;;;41.06;27.80;97069.56;4908676;29;20103;-65
2022/06/08 08:48:17;;;;;;;34.08;8.65;;;;;;;41.04;26.39;97070.91;4920478;29;20062;-66
2022/06/08 08:51:28;;;;;;;31.90;6.47;;;;;;;41.07;27.42;97068.47;4929405;29;20052;-66
2022/06/08 08:54:28;;;;;;;40.67;6.30;;;;;;;41.17;25.32;97070.34;4912960;29;20067;-65
2022/06/08 08:57:40;;;;;;;25.20;4.85;;;;;;;41.17;24.88;97065.72;4923175;29;20052;-66
2022/06/08 09:00:47;;;;;;;35.15;5.28;;;;;;;41.18;25.48;97048.44;4917251;28;20059;-66
2022/06/08 09:03:42;;;;;;;37.80;6.82;;;;;;;41.22;26.18;97040.53;4920699;29;20056;-66
2022/06/08 09:06:35;;;;;;;49.35;6.32;;;;;;;41.26;27.24;97045.13;4920335;29;20139;-66
2022/06/08 09:09:28;;;;;;;38.53;5.70;;;;;;;41.21;25.97;97044.34;4918177;29;20055;-66
2022/06/08 09:12:21;;;;;;;39.22;6.65;;;;;;;41.19;24.44;97036.50;4919331;28;20168;-67
2022/06/08 09:15:15;;;;;;;49.00;8.57;;;;;;;41.27;25.01;97038.59;4925300;29;20048;-66
2022/06/08 09:18:05;;;;;;;33.15;5.35;;;;;;;41.19;23.90;97031.09;4914526;29;20052;-67
2022/06/08 09:20:48;;;;;;;27.98;5.68;;;;;;;41.15;26.79;97026.53;4902211;29;20054;-65
2022/06/08 09:23:48;;;;;;;32.40;4.93;;;;;;;41.13;25.86;97021.41;4906136;29;20436;-65
2022/06/08 09:26:33;;;;;;;38.58;5.55;;;;;;;41.10;27.21;97015.78;4909492;29;20125;-65
2022/06/08 09:29:29;;;;;;;34.10;6.15;;;;;;;41.09;27.27;97019.53;4910415;29;20055;-66
2022/06/08 09:32:32;;;;;;;37.53;5.70;;;;;;;41.04;28.39;97006.03;4914707;29;20059;-67
2022/06/08 09:35:32;;;;;;;39.25;6.75;;;;;;;40.98;26.87;97004.47;4914015;29;20056;-67
2022/06/08 09:38:15;;;;;;;36.88;5.20;;;;;;;41.00;26.00;96995.00;4925657;29;20396;-66
2022/06/08 09:41:22;;;;;;;63.13;6.75;;;;;;;41.05;25.44;97002.25;4915965;29;20055;-67
2022/06/08 09:44:21;;;;;;;37.95;5.05;;;;;;;41.02;25.13;97003.66;4921677;29;20507;-68
2022/06/08 09:51:25;;;;;;;40.13;5.35;;;;;;;40.91;26.98;96996.69;4907105;29;20052;-67
2022/06/08 09:54:21;;;;;;;40.85;6.30;;;;;;;40.85;25.43;96992.41;4907272;29;20488;-66
2022/06/08 09:57:24;;;;;;;64.43;7.05;;;;;;;40.87;27.00;96988.31;4907660;29;20055;-65
2022/06/08 10:00:30;;;;;;;40.55;5.88;;;;;;;40.74;26.77;96977.34;4909075;29;20044;-66
2022/06/08 10:03:58;;;;;;;52.30;8.48;;;;;;;40.81;26.88;96986.75;4916659;29;20748;-68
2022/06/08 10:07:00;;;;;;;;;;;;;;;40.90;24.76;96985.06;4923394;29;20047;-67
2022/06/08 10:09:54;;;;;;;32.25;5.70;;;;;;;40.89;24.98;96983.47;4924186;29;19927;-69
2022/06/08 10:12:59;;;;;;;34.40;6.00;;;;;;;40.90;24.55;96968.84;4923894;29;20050;-67
2022/06/08 10:15:46;;;;;;;33.05;5.45;;;;;;;40.82;25.45;96971.34;4922685;29;20051;-66
2022/06/08 10:18:57;;;;;;;31.92;4.32;;;;;;;40.73;25.18;96965.75;4917395;29;20059;-67
2022/06/08 10:21:43;;;;;;;49.53;6.05;;;;;;;40.78;24.15;96970.31;4917720;29;20050;-67
2022/06/08 10:25:10;;;;;;;53.55;6.88;;;;;;;40.80;24.37;96968.94;4912768;29;20060;-65
2022/06/08 10:28:09;;;;;;;51.58;6.35;;;;;;;40.81;24.39;96956.22;4941398;28;20043;-65
2022/06/08 10:31:21;;;;;;;32.22;4.30;;;;;;;40.81;25.83;96954.34;4917198;29;20048;-67
2022/06/08 10:34:16;;;;;;;39.58;7.05;;;;;;;40.87;23.65;96957.78;4917725;28;20759;-66
2022/06/08 10:37:22;;;;;;;22.52;4.20;;;;;;;40.78;23.72;96951.41;4921802;29;20066;-66
2022/06/08 10:40:23;;;;;;;33.22;5.40;;;;;;;40.87;23.77;96949.69;4925344;29;20071;-66
2022/06/08 10:43:12;;;;;;;39.08;5.57;;;;;;;40.83;22.77;96952.16;4935530;28;20055;-66
2022/06/08 10:46:22;;;;;;;40.55;6.00;;;;;;;40.76;24.34;96938.19;4928682;29;20062;-65
2022/06/08 10:49:24;;;;;;;60.13;6.93;;;;;;;40.62;24.38;96928.25;4598113;29;10000122;-66
2022/06/08 10:52:28;;;;;;;46.53;5.45;;;;;;;40.56;24.62;96932.06;4596253;28;9999632;-65
2022/06/08 10:55:21;;;;;;;46.15;6.25;;;;;;;40.59;23.69;96939.63;4929873;29;20118;-66
2022/06/08 10:58:22;;;;;;;33.63;5.10;;;;;;;40.60;24.24;96936.63;4922404;29;20048;-68
2022/06/08 11:01:04;;;;;;;38.00;5.70;;;;;;;40.53;24.53;96928.84;4928434;29;20122;-66
2022/06/08 11:04:06;;;;;;;36.22;5.05;;;;;;;40.51;23.62;96922.13;4930085;29;20062;-66
2022/06/08 11:06:55;;;;;;;41.53;5.25;;;;;;;40.47;23.81;96924.56;4936294;28;20795;-66
2022/06/08 11:09:50;;;;;;;37.90;5.55;;;;;;;40.48;25.09;96920.78;4940155;28;20051;-65
2022/06/08 11:12:55;;;;;;;36.67;4.03;;;;;;;40.37;24.99;96916.53;4574743;29;10000547;-65
2022/06/08 11:16:01;;;;;;;36.35;5.38;;;;;;;40.34;24.34;96924.38;4908685;29;20472;-66
2022/06/08 11:19:21;;;;;;;45.40;5.97;;;;;;;40.28;24.69;96912.00;4926909;29;20400;-66
2022/06/08 11:22:20;;;;;;;41.80;5.60;;;;;;;40.24;25.90;96917.13;4926159;29;20463;-65
2022/06/08 11:25:06;;;;;;;40.15;6.93;;;;;;;40.28;24.24;96910.13;4935439;29;20051;-66
2022/06/08 11:28:27;;;;;;;31.58;6.10;;;;;;;40.27;22.97;96907.69;4927711;29;20059;-67
2022/06/08 11:31:38;;;;;;;45.85;6.43;;;;;;;40.24;25.33;96905.50;4931173;29;20464;-67
2022/06/08 11:35:13;;;;;;;40.85;6.32;;;;;;;40.12;23.72;96913.97;4943944;28;20111;-68
2022/06/08 11:38:21;;;;;;;;;;;;;;;40.06;24.97;96910.50;4907074;29;20150;-68
2022/06/08 11:41:21;;;;;;;45.42;6.13;;;;;;;40.01;24.85;96902.41;4916412;29;19973;-69
2022/06/08 11:44:33;;;;;;;46.72;5.85;;;;;;;40.00;25.39;96911.56;4926461;29;20070;-69
2022/06/08 11:47:21;;;;;;;40.25;5.20;;;;;;;39.99;24.04;96911.88;4929153;29;20055;-68
2022/06/08 11:50:24;;;;;;;49.70;6.53;;;;;;;39.89;25.93;96904.63;4929406;29;20130;-68
2022/06/08 11:53:24;;;;;;;30.25;5.10;;;;;;;39.86;25.61;96898.97;4927962;29;20056;-68
2022/06/08 11:56:47;;;;;;;34.45;5.40;;;;;;;39.81;24.18;96905.19;4928827;29;20051;-69
2022/06/08 11:59:40;;;;;;;34.03;5.65;;;;;;;39.88;25.05;96908.41;4924568;29;20145;-69
2022/06/08 12:02:33;;;;;;;68.75;10.45;;;;;;;39.87;24.71;96905.97;4927785;29;20060;-69
2022/06/08 12:05:22;;;;;;;40.42;6.82;;;;;;;39.77;25.12;96904.91;4929100;29;20059;-70
2022/06/08 12:08:23;;;;;;;45.10;5.95;;;;;;;39.72;25.56;96906.81;4923136;29;20143;-69
2022/06/08 12:11:29;;;;;;;34.05;5.13;;;;;;;39.72;25.77;96907.63;4932973;29;20455;-69
2022/06/08 12:14:39;;;;;;;50.53;7.20;;;;;;;39.72;25.40;96915.72;4937251;29;20066;-68
2022/06/08 12:17:42;;;;;;;41.80;6.97;;;;;;;39.65;25.24;96915.22;4929830;29;20051;-69
2022/06/08 12:20:36;;;;;;;34.33;6.55;;;;;;;39.60;25.20;96912.53;4929830;29;20058;-68
2022/06/08 12:24:01;;;;;;;49.90;6.15;;;;;;;39.54;26.25;96913.63;4929398;29;20094;-69
2022/06/08 12:27:02;;;;;;;35.92;5.43;;;;;;;39.52;25.86;96909.56;4928663;29;20427;-69
2022/06/08 12:29:55;;;;;;;42.95;6.28;;;;;;;39.48;25.94;96911.22;4929734;29;20055;-68
2022/06/08 12:33:01;;;;;;;43.28;6.45;;;;;;;39.51;25.56;96913.38;4929140;29;20146;-69
2022/06/08 12:36:28;;;;;;;51.80;7.40;;;;;;;39.49;25.73;96916.34;4905388;29;20623;-69
2022/06/08 12:39:12;;;;;;;46.50;6.55;;;;;;;39.38;26.05;96917.44;4909480;29;20074;-69
2022/06/08 12:42:07;;;;;;;43.03;6.72;;;;;;;39.39;25.89;96913.66;4932498;29;20078;-70
2022/06/08 12:44:52;;;;;;;38.83;6.40;;;;;;;39.21;26.81;96920.41;4929657;29;20059;-69
2022/06/08 12:47:45;;;;;;;43.90;6.80;;;;;;;39.12;26.60;96923.91;4929931;29;20139;-69
2022/06/08 12:50:36;;;;;;;38.80;6.38;;;;;;;39.09;26.33;96921.78;4929302;29;20055;-69
2022/06/08 12:53:18;;;;;;;38.25;6.32;;;;;;;38.98;26.08;96926.38;4928211;29;20150;-70
2022/06/08 12:56:07;;;;;;;53.03;7.03;;;;;;;39.06;25.82;96927.69;4927491;29;20451;-70
2022/06/08 12:58:52;;;;;;;41.50;5.85;;;;;;;39.01;25.80;96923.13;4927010;29;20044;-69
2022/06/08 13:01:41;;;;;;;43.70;6.65;;;;;;;39.01;25.76;96920.44;4935653;29;20852;-69
2022/06/08 13:04:25;;;;;;;46.78;6.13;;;;;;;38.88;25.93;96920.94;4934003;28;20090;-70
2022/06/08 13:07:17;;;;;;;39.42;5.65;;;;;;;38.69;26.34;96920.69;4938033;28;20051;-68
2022/06/08 13:09:59;;;;;;;36.53;6.70;;;;;;;38.62;26.93;96925.53;4931968;28;20051;-67
2022/06/08 13:12:54;;;;;;;32.13;5.65;;;;;;;38.52;27.20;96928.22;4930593;29;20050;-66
2022/06/08 13:15:41;;;;;;;45.83;5.95;;;;;;;38.47;26.29;96930.88;4947134;28;20182;-66
2022/06/08 13:18:33;;;;;;;31.02;5.47;;;;;;;38.41;26.43;96931.91;4947930;28;20737;-66
2022/06/08 13:21:16;;;;;;;42.75;7.32;;;;;;;38.22;27.99;96918.97;4928825;29;20138;-66
2022/06/08 13:24:04;;;;;;;50.20;7.95;;;;;;;38.16;28.66;96922.72;4934680;28;20077;-66
2022/06/08 13:26:48;;;;;;;45.22;7.78;;;;;;;38.07;27.97;96926.19;4934162;29;20141;-67
2022/06/08 13:29:39;;;;;;;38.03;6.90;;;;;;;37.89;27.96;96925.56;4934171;29;20681;-66
2022/06/08 13:32:21;;;;;;;;;;;;;;;37.81;28.48;96938.72;4923765;28;20059;-66
2022/06/08 13:35:10;;;;;;;46.28;7.97;;;;;;;37.77;27.70;96927.66;4925984;29;19930;-66
2022/06/08 13:37:53;;;;;;;51.03;8.48;;;;;;;37.80;27.28;96929.81;4929093;29;20060;-66
2022/06/08 13:40:42;;;;;;;52.42;7.40;;;;;;;37.76;27.76;96930.59;4927740;29;20051;-64
2022/06/08 13:43:25;;;;;;;40.92;8.40;;;;;;;37.69;28.04;96932.72;4929759;28;20053;-66
2022/06/08 13:46:26;;;;;;;59.50;8.48;;;;;;;37.69;26.98;96924.66;4944745;28;20051;-65
2022/06/08 13:49:14;;;;;;;39.75;9.43;;;;;;;37.60;28.10;96934.31;4928691;29;20062;-66
2022/06/08 13:52:03;;;;;;;58.72;9.43;;;;;;;37.43;29.64;96927.19;4928441;29;20443;-66
2022/06/08 13:54:52;;;;;;;43.57;10.43;;;;;;;37.20;29.98;96924.88;4928073;29;20575;-66